Time;durP1;ratioP1;P1;durP2;ratioP2;P2;SDS_P1;SDS_P2;PMS_P1;PMS_P2;Temp;Humidity;BMP_temperature;BMP_pressure;BME280_temperature;BME280_humidity;BME280_pressure;Samples;Min_cycle;Max_cycle;Signal;HPM_P1;HPM_P2
2023/07/09 00:00:56;;;;;;;5.30;4.30;;;;;;;;;;5050416;28;20182;-76
2023/07/09 00:03:23;;;;;;;7.73;5.00;;;;;;;;;;5041822;28;20240;-76
2023/07/09 00:05:49;;;;;;;6.80;4.70;;;;;;;;;;5050144;28;20220;-76
2023/07/09 00:08:27;;;;;;;5.70;4.17;;;;;;;;;;5036574;28;20547;-76
2023/07/09 00:10:54;;;;;;;4.73;4.07;;;;;;;;;;5039858;28;20190;-76
2023/07/09 00:13:21;;;;;;;5.87;4.40;;;;;;;;;;5042555;28;20228;-76
2023/07/09 00:15:48;;;;;;;6.27;4.20;;;;;;;;;;5029657;28;20168;-76
2023/07/09 00:18:14;;;;;;;4.20;3.70;;;;;;;;;;5032248;28;20550;-76
2023/07/09 00:20:43;;;;;;;5.90;3.60;;;;;;;;;;5031217;28;20221;-75
2023/07/09 00:23:13;;;;;;;5.93;3.80;;;;;;;;;;5033327;28;20627;-76
2023/07/09 00:25:44;;;;;;;4.60;3.70;;;;;;;;;;5037308;28;20186;-77
2023/07/09 00:28:14;;;;;;;4.73;3.73;;;;;;;;;;5021072;28;20278;-76
2023/07/09 00:30:40;;;;;;;6.00;3.90;;;;;;;;;;5044667;28;20653;-77
2023/07/09 00:33:10;;;;;;;6.37;4.17;;;;;;;;;;5048730;28;20205;-76
2023/07/09 00:35:36;;;;;;;6.93;4.63;;;;;;;;;;5043037;28;20185;-76
2023/07/09 00:38:02;;;;;;;8.03;4.70;;;;;;;;;;5057386;28;20208;-76
2023/07/09 00:40:28;;;;;;;9.20;4.70;;;;;;;;;;5055539;28;20178;-76
2023/07/09 00:42:55;;;;;;;6.43;4.90;;;;;;;;;;5054414;28;20231;-76
2023/07/09 00:45:23;;;;;;;10.27;5.03;;;;;;;;;;5021995;28;20545;-76
2023/07/09 00:47:55;;;;;;;5.77;4.43;;;;;;;;;;5038629;28;20182;-76
2023/07/09 00:50:31;;;;;;;5.43;4.53;;;;;;;;;;5037366;28;20174;-76
2023/07/09 00:53:02;;;;;;;4.73;3.97;;;;;;;;;;5025274;28;20186;-78
2023/07/09 00:55:30;;;;;;;5.83;3.90;;;;;;;;;;5047526;28;20195;-76
2023/07/09 00:58:00;;;;;;;6.70;4.47;;;;;;;;;;5037084;28;20237;-76
2023/07/09 01:00:30;;;;;;;5.60;4.63;;;;;;;;;;5041920;28;20269;-76
2023/07/09 01:02:58;;;;;;;5.83;4.87;;;;;;;;;;5038966;28;20199;-76
2023/07/09 01:05:25;;;;;;;4.73;4.10;;;;;;;;;;5044432;28;20209;-76
2023/07/09 01:07:53;;;;;;;6.03;4.20;;;;;;;;;;5046670;28;20182;-77
2023/07/09 01:10:20;;;;;;;7.83;4.57;;;;;;;;;;5035720;28;20566;-76
2023/07/09 01:12:47;;;;;;;5.90;4.20;;;;;;;;;;5043946;28;20179;-76
2023/07/09 01:15:15;;;;;;;5.83;4.37;;;;;;;;;;5036920;28;20179;-76
2023/07/09 01:17:44;;;;;;;7.70;4.47;;;;;;;;;;5035870;28;20614;-76
2023/07/09 01:20:16;;;;;;;7.10;4.70;;;;;;;;;;5043330;28;20243;-76
2023/07/09 01:22:42;;;;;;;6.13;4.53;;;;;;;;;;5035850;28;20182;-77
2023/07/09 01:25:11;;;;;;;6.27;3.90;;;;;;;;;;5035715;28;20192;-76
2023/07/09 01:27:39;;;;;;;6.13;4.67;;;;;;;;;;5035884;28;20208;-76
2023/07/09 01:30:07;;;;;;;5.40;4.40;;;;;;;;;;5040835;28;20535;-77
2023/07/09 01:32:33;;;;;;;5.67;4.30;;;;;;;;;;5056015;28;20363;-76
2023/07/09 01:35:06;;;;;;;4.87;4.27;;;;;;;;;;5053813;28;20289;-76
2023/07/09 01:37:34;;;;;;;6.83;4.60;;;;;;;;;;5052748;28;20194;-76
2023/07/09 01:40:00;;;;;;;5.63;4.57;;;;;;;;;;5040054;28;20183;-76
2023/07/09 01:42:28;;;;;;;6.27;4.60;;;;;;;;;;5023560;28;20244;-76
2023/07/09 01:44:54;;;;;;;8.23;4.60;;;;;;;;;;5041765;28;20217;-76
2023/07/09 01:47:23;;;;;;;6.70;4.60;;;;;;;;;;5032457;28;20183;-76
2023/07/09 01:49:50;;;;;;;5.40;4.70;;;;;;;;;;5015927;28;20197;-77
2023/07/09 01:52:18;;;;;;;7.27;4.07;;;;;;;;;;5038358;28;20170;-76
2023/07/09 01:54:49;;;;;;;6.77;4.37;;;;;;;;;;5039601;28;20280;-76
2023/07/09 01:57:15;;;;;;;6.43;4.50;;;;;;;;;;5032024;28;20293;-76
2023/07/09 01:59:41;;;;;;;5.67;4.50;;;;;;;;;;5032249;28;20183;-76
2023/07/09 02:02:08;;;;;;;6.00;4.33;;;;;;;;;;5037582;28;20586;-77
2023/07/09 02:04:34;;;;;;;4.93;4.40;;;;;;;;;;5050234;28;20542;-77
2023/07/09 02:07:01;;;;;;;6.20;4.33;;;;;;;;;;5032733;28;20196;-76
2023/07/09 02:09:27;;;;;;;5.53;4.10;;;;;;;;;;5051949;28;20637;-76
2023/07/09 02:11:53;;;;;;;5.50;3.93;;;;;;;;;;5052226;28;20174;-76
2023/07/09 02:14:19;;;;;;;6.63;4.60;;;;;;;;;;5036873;28;20202;-77
2023/07/09 02:16:45;;;;;;;6.23;4.73;;;;;;;;;;5031501;28;20214;-76
2023/07/09 02:19:11;;;;;;;5.00;3.93;;;;;;;;;;5033310;28;20253;-76
2023/07/09 02:21:37;;;;;;;4.83;4.30;;;;;;;;;;5034411;28;20201;-76
2023/07/09 02:24:04;;;;;;;5.60;4.10;;;;;;;;;;5050172;28;20202;-76
2023/07/09 02:26:30;;;;;;;7.33;4.43;;;;;;;;;;5051764;28;20197;-76
2023/07/09 02:28:56;;;;;;;8.07;4.20;;;;;;;;;;5040992;28;20186;-76
2023/07/09 02:31:22;;;;;;;5.73;4.03;;;;;;;;;;5031802;28;20772;-76
2023/07/09 02:33:48;;;;;;;5.13;4.07;;;;;;;;;;5030915;28;20206;-76
2023/07/09 02:36:14;;;;;;;5.53;3.50;;;;;;;;;;5021713;28;20649;-76
2023/07/09 02:38:40;;;;;;;5.30;4.00;;;;;;;;;;5041391;28;20658;-76
2023/07/09 02:41:06;;;;;;;5.40;4.13;;;;;;;;;;5045419;28;20174;-76
2023/07/09 02:43:32;;;;;;;5.60;4.07;;;;;;;;;;5052850;28;20665;-76
2023/07/09 02:45:59;;;;;;;6.87;4.43;;;;;;;;;;5034477;28;20193;-76
2023/07/09 02:48:25;;;;;;;7.13;4.07;;;;;;;;;;5031572;28;20874;-76
2023/07/09 02:50:51;;;;;;;4.70;4.20;;;;;;;;;;5031353;28;20190;-76
2023/07/09 02:53:17;;;;;;;6.23;4.60;;;;;;;;;;5031450;28;20660;-76
2023/07/09 02:55:43;;;;;;;5.73;4.50;;;;;;;;;;5031030;28;20186;-78
2023/07/09 02:58:09;;;;;;;6.63;4.47;;;;;;;;;;5040597;28;20212;-77
2023/07/09 03:00:35;;;;;;;6.50;4.83;;;;;;;;;;5038280;28;20178;-77
2023/07/09 03:03:02;;;;;;;6.63;4.53;;;;;;;;;;5034591;28;20779;-77
2023/07/09 03:05:28;;;;;;;5.73;5.00;;;;;;;;;;5043373;28;20265;-77
2023/07/09 03:07:54;;;;;;;7.93;4.90;;;;;;;;;;5031021;28;20193;-77
2023/07/09 03:10:20;;;;;;;5.53;4.40;;;;;;;;;;5031147;28;20225;-76
2023/07/09 03:12:46;;;;;;;4.93;4.20;;;;;;;;;;5035740;28;20240;-77
2023/07/09 03:15:13;;;;;;;6.43;4.43;;;;;;;;;;5045399;28;20194;-76
2023/07/09 03:17:39;;;;;;;5.57;4.30;;;;;;;;;;5040891;28;20244;-76
2023/07/09 03:20:06;;;;;;;5.33;4.17;;;;;;;;;;5039252;28;20205;-76
2023/07/09 03:22:34;;;;;;;6.67;4.57;;;;;;;;;;5050746;28;20182;-76
2023/07/09 03:25:00;;;;;;;8.70;4.43;;;;;;;;;;5049734;28;20194;-76
2023/07/09 03:27:26;;;;;;;10.20;5.30;;;;;;;;;;5034451;28;20182;-76
2023/07/09 03:29:52;;;;;;;7.93;5.30;;;;;;;;;;5033838;28;20186;-76
2023/07/09 03:32:18;;;;;;;8.87;5.83;;;;;;;;;;5040859;28;20190;-77
2023/07/09 03:34:45;;;;;;;6.20;5.60;;;;;;;;;;5051409;28;20680;-78
2023/07/09 03:37:11;;;;;;;7.67;5.67;;;;;;;;;;5044099;28;20220;-77
2023/07/09 03:39:37;;;;;;;8.73;5.30;;;;;;;;;;5050495;28;20185;-76
2023/07/09 03:42:03;;;;;;;8.80;5.07;;;;;;;;;;5046222;28;20633;-77
2023/07/09 03:44:29;;;;;;;6.67;5.20;;;;;;;;;;5044999;28;20210;-77
2023/07/09 03:46:55;;;;;;;5.83;4.73;;;;;;;;;;5031296;28;20198;-77
2023/07/09 03:49:21;;;;;;;9.43;5.10;;;;;;;;;;5038104;28;20177;-76
2023/07/09 03:51:47;;;;;;;6.00;4.80;;;;;;;;;;5041236;28;20182;-77
2023/07/09 03:54:14;;;;;;;5.63;4.03;;;;;;;;;;5031602;28;20260;-76
2023/07/09 03:56:40;;;;;;;5.30;4.80;;;;;;;;;;5029604;28;20218;-76
2023/07/09 03:59:06;;;;;;;7.37;4.83;;;;;;;;;;5030931;28;20590;-77
2023/07/09 04:01:32;;;;;;;7.23;4.67;;;;;;;;;;5011969;28;20170;-76
2023/07/09 04:03:58;;;;;;;5.93;5.00;;;;;;;;;;5039591;28;20255;-76
2023/07/09 04:06:24;;;;;;;6.67;5.20;;;;;;;;;;5048062;28;20247;-76
2023/07/09 04:08:50;;;;;;;7.90;4.93;;;;;;;;;;5034324;28;20182;-77
2023/07/09 04:11:16;;;;;;;6.67;5.20;;;;;;;;;;5017185;28;20174;-76
2023/07/09 04:13:42;;;;;;;6.70;5.40;;;;;;;;;;5044071;28;20210;-77
2023/07/09 04:16:10;;;;;;;7.77;5.30;;;;;;;;;;5013465;28;20216;-76
2023/07/09 04:18:36;;;;;;;9.37;6.00;;;;;;;;;;5040285;28;20186;-76
2023/07/09 04:21:02;;;;;;;7.37;5.80;;;;;;;;;;5032408;28;20542;-77
2023/07/09 04:23:28;;;;;;;9.03;5.97;;;;;;;;;;5031201;28;20191;-76
2023/07/09 04:25:54;;;;;;;8.07;5.50;;;;;;;;;;5029837;28;20178;-76
2023/07/09 04:28:20;;;;;;;7.00;5.60;;;;;;;;;;5043716;28;20182;-76
2023/07/09 04:30:48;;;;;;;10.10;5.40;;;;;;;;;;5039105;28;20181;-76
2023/07/09 04:33:17;;;;;;;8.20;6.00;;;;;;;;;;5049119;28;20202;-76
2023/07/09 04:35:43;;;;;;;8.30;5.87;;;;;;;;;;5050780;28;20668;-76
2023/07/09 04:38:10;;;;;;;6.57;5.73;;;;;;;;;;5031558;28;20648;-76
2023/07/09 04:40:36;;;;;;;8.73;6.00;;;;;;;;;;5043001;28;20266;-76
2023/07/09 04:43:02;;;;;;;7.57;5.50;;;;;;;;;;5031789;28;20275;-76
2023/07/09 04:45:28;;;;;;;6.43;5.20;;;;;;;;;;5031661;28;20167;-76
2023/07/09 04:47:54;;;;;;;7.57;5.63;;;;;;;;;;5048542;28;20207;-77
2023/07/09 04:50:20;;;;;;;9.10;5.70;;;;;;;;;;5049901;28;20223;-76
2023/07/09 04:52:46;;;;;;;8.40;6.20;;;;;;;;;;5049788;28;20174;-76
2023/07/09 04:55:12;;;;;;;7.03;6.33;;;;;;;;;;5046155;28;20537;-76
2023/07/09 04:57:39;;;;;;;7.53;6.30;;;;;;;;;;5029543;28;20542;-76
2023/07/09 05:00:06;;;;;;;8.07;6.10;;;;;;;;;;5013266;28;20179;-77
2023/07/09 05:02:32;;;;;;;7.67;6.37;;;;;;;;;;5029677;28;20195;-76
2023/07/09 05:04:58;;;;;;;9.33;6.77;;;;;;;;;;5045675;28;20311;-76
2023/07/09 05:07:24;;;;;;;9.97;6.60;;;;;;;;;;4997927;28;20632;-76
2023/07/09 05:09:50;;;;;;;9.37;7.20;;;;;;;;;;5049563;28;20184;-76
2023/07/09 05:12:17;;;;;;;7.87;6.60;;;;;;;;;;5054507;28;20196;-76
2023/07/09 05:14:43;;;;;;;8.27;6.67;;;;;;;;;;5050667;28;20491;-76
2023/07/09 05:17:09;;;;;;;9.30;6.90;;;;;;;;;;5014245;28;20241;-76
2023/07/09 05:19:35;;;;;;;6.63;5.93;;;;;;;;;;5013764;28;20182;-77
2023/07/09 05:22:02;;;;;;;6.87;6.10;;;;;;;;;;5014181;28;20234;-76
2023/07/09 05:24:28;;;;;;;9.57;6.73;;;;;;;;;;5014128;28;20198;-76
2023/07/09 05:26:55;;;;;;;6.50;5.70;;;;;;;;;;5014102;28;20186;-76
2023/07/09 05:29:21;;;;;;;10.80;5.83;;;;;;;;;;5014840;28;20266;-76
2023/07/09 05:31:47;;;;;;;6.80;5.77;;;;;;;;;;5013620;28;20183;-76
2023/07/09 05:34:14;;;;;;;8.13;5.80;;;;;;;;;;5014529;28;20282;-76
2023/07/09 05:36:40;;;;;;;7.33;5.60;;;;;;;;;;5014069;28;20198;-76
2023/07/09 05:39:06;;;;;;;10.67;5.80;;;;;;;;;;5014558;28;20266;-78
2023/07/09 05:41:32;;;;;;;8.10;5.50;;;;;;;;;;5023969;28;20175;-78
2023/07/09 05:43:59;;;;;;;6.30;4.90;;;;;;;;;;5043899;28;20629;-76
2023/07/09 05:46:25;;;;;;;7.60;5.47;;;;;;;;;;5051878;28;20186;-77
2023/07/09 05:48:51;;;;;;;7.53;4.87;;;;;;;;;;5052552;28;20174;-76
2023/07/09 05:51:18;;;;;;;5.97;4.90;;;;;;;;;;5053663;28;20222;-77
2023/07/09 05:53:44;;;;;;;5.73;4.93;;;;;;;;;;5047647;28;20202;-76
2023/07/09 05:56:10;;;;;;;5.77;4.63;;;;;;;;;;5033236;28;20258;-76
2023/07/09 05:58:37;;;;;;;7.87;5.23;;;;;;;;;;5047566;28;20196;-76
2023/07/09 06:01:03;;;;;;;7.60;4.80;;;;;;;;;;5030272;28;20186;-77
2023/07/09 06:03:30;;;;;;;7.43;4.83;;;;;;;;;;5041926;28;20214;-77
2023/07/09 06:05:57;;;;;;;5.57;4.60;;;;;;;;;;5041604;28;20197;-76
2023/07/09 06:08:23;;;;;;;5.47;4.47;;;;;;;;;;5038236;28;20232;-76
2023/07/09 06:10:56;;;;;;;6.00;4.30;;;;;;;;;;5038376;28;20177;-76
2023/07/09 06:13:22;;;;;;;8.70;4.63;;;;;;;;;;5046210;28;20225;-77
2023/07/09 06:15:49;;;;;;;5.93;4.50;;;;;;;;;;5039736;28;20175;-76
2023/07/09 06:18:15;;;;;;;5.87;4.53;;;;;;;;;;5035190;28;20579;-76
2023/07/09 06:20:41;;;;;;;9.87;5.00;;;;;;;;;;5044225;28;20170;-76
2023/07/09 06:23:07;;;;;;;6.23;4.80;;;;;;;;;;5034557;28;20840;-76
2023/07/09 06:25:34;;;;;;;6.63;5.00;;;;;;;;;;5047093;28;20735;-76
2023/07/09 06:28:01;;;;;;;7.27;5.20;;;;;;;;;;5052185;28;20174;-76
2023/07/09 06:30:27;;;;;;;7.50;4.23;;;;;;;;;;5040783;28;20229;-76
2023/07/09 06:32:53;;;;;;;6.83;4.50;;;;;;;;;;5032945;28;20174;-76
2023/07/09 06:35:19;;;;;;;6.80;4.17;;;;;;;;;;5015058;28;20202;-76
2023/07/09 06:37:45;;;;;;;5.00;4.50;;;;;;;;;;5032723;28;20576;-76
2023/07/09 06:40:12;;;;;;;5.80;4.20;;;;;;;;;;5041847;28;20185;-76
2023/07/09 06:42:38;;;;;;;6.37;4.70;;;;;;;;;;5048068;28;20185;-77
2023/07/09 06:45:22;;;;;;;5.07;4.10;;;;;;;;;;5039165;28;20566;-77
2023/07/09 06:47:49;;;;;;;7.00;5.00;;;;;;;;;;5041224;28;20582;-76
2023/07/09 06:50:15;;;;;;;5.10;4.53;;;;;;;;;;5038804;28;20264;-76
2023/07/09 06:52:42;;;;;;;7.37;4.80;;;;;;;;;;5048328;28;20534;-77
2023/07/09 06:55:08;;;;;;;7.40;5.00;;;;;;;;;;5049074;28;20190;-76
2023/07/09 06:57:34;;;;;;;7.53;5.07;;;;;;;;;;5042837;28;20280;-76
2023/07/09 07:00:00;;;;;;;6.13;4.63;;;;;;;;;;5047253;28;20284;-77
2023/07/09 07:02:27;;;;;;;6.87;4.67;;;;;;;;;;5044206;28;20183;-77
2023/07/09 07:04:53;;;;;;;5.70;4.27;;;;;;;;;;5037917;28;20405;-76
2023/07/09 07:07:19;;;;;;;7.33;4.63;;;;;;;;;;5037372;28;20187;-76
2023/07/09 07:09:46;;;;;;;5.37;4.87;;;;;;;;;;5044416;28;20232;-77
2023/07/09 07:12:20;;;;;;;6.47;4.90;;;;;;;;;;5041707;28;20183;-77
2023/07/09 07:14:46;;;;;;;5.67;4.70;;;;;;;;;;5051948;28;20676;-77
2023/07/09 07:17:14;;;;;;;6.67;4.70;;;;;;;;;;5051689;28;20208;-77
2023/07/09 07:19:40;;;;;;;6.33;4.60;;;;;;;;;;5045644;28;20178;-77
2023/07/09 07:22:07;;;;;;;5.50;4.43;;;;;;;;;;5046503;28;20174;-76
2023/07/09 07:24:33;;;;;;;5.33;4.27;;;;;;;;;;5031367;28;20294;-76
2023/07/09 07:26:59;;;;;;;5.73;4.50;;;;;;;;;;5050884;28;20549;-78
2023/07/09 07:29:27;;;;;;;6.10;4.13;;;;;;;;;;5052080;28;20186;-73
2023/07/09 07:31:54;;;;;;;8.37;4.77;;;;;;;;;;5051639;28;20550;-76
2023/07/09 07:34:20;;;;;;;7.80;4.37;;;;;;;;;;5046595;28;20595;-75
2023/07/09 07:36:47;;;;;;;5.87;4.43;;;;;;;;;;5030479;28;20589;-75
2023/07/09 07:39:15;;;;;;;7.17;4.60;;;;;;;;;;5029007;28;20190;-78
2023/07/09 07:41:41;;;;;;;7.73;4.43;;;;;;;;;;5012234;28;20198;-75
2023/07/09 07:44:08;;;;;;;6.17;4.47;;;;;;;;;;4997684;28;20212;-74
2023/07/09 07:46:34;;;;;;;6.07;4.90;;;;;;;;;;5048885;28;20524;-76
2023/07/09 07:49:01;;;;;;;5.30;4.80;;;;;;;;;;5036622;28;20204;-75
2023/07/09 07:51:27;;;;;;;6.20;4.67;;;;;;;;;;5051690;28;20235;-75
2023/07/09 07:53:54;;;;;;;6.10;4.50;;;;;;;;;;5042011;28;20716;-74
2023/07/09 07:56:20;;;;;;;5.93;4.37;;;;;;;;;;5041283;28;20186;-75
2023/07/09 07:58:46;;;;;;;4.97;4.10;;;;;;;;;;5036288;28;20232;-76
2023/07/09 08:01:12;;;;;;;6.17;3.83;;;;;;;;;;5031266;28;20221;-76
2023/07/09 08:03:38;;;;;;;5.90;4.90;;;;;;;;;;5031485;28;20193;-76
2023/07/09 08:06:04;;;;;;;6.13;4.70;;;;;;;;;;5051024;28;20162;-76
2023/07/09 08:08:30;;;;;;;5.83;4.37;;;;;;;;;;5051338;28;20701;-76
2023/07/09 08:11:04;;;;;;;6.40;4.40;;;;;;;;;;5051265;28;20212;-76
2023/07/09 08:13:33;;;;;;;6.63;4.43;;;;;;;;;;5049689;28;20237;-76
2023/07/09 08:15:59;;;;;;;6.67;4.60;;;;;;;;;;5051209;28;20219;-76
2023/07/09 08:18:25;;;;;;;6.70;4.87;;;;;;;;;;5051386;28;20291;-76
2023/07/09 08:20:51;;;;;;;7.80;4.80;;;;;;;;;;5050461;28;20292;-76
2023/07/09 08:23:17;;;;;;;7.23;4.43;;;;;;;;;;5051422;28;20203;-76
2023/07/09 08:25:43;;;;;;;4.90;4.10;;;;;;;;;;5050988;28;20266;-76
2023/07/09 08:28:09;;;;;;;5.33;4.67;;;;;;;;;;5034948;28;20284;-76
2023/07/09 08:30:36;;;;;;;5.73;4.80;;;;;;;;;;5030289;28;20560;-78
2023/07/09 08:33:02;;;;;;;5.37;4.50;;;;;;;;;;5031277;28;20186;-77
2023/07/09 08:35:29;;;;;;;6.17;4.53;;;;;;;;;;5048438;28;20174;-76
2023/07/09 08:37:55;;;;;;;6.20;4.60;;;;;;;;;;5051073;28;20201;-76
2023/07/09 08:40:21;;;;;;;5.13;4.40;;;;;;;;;;5049361;28;20177;-76
2023/07/09 08:42:50;;;;;;;6.97;4.50;;;;;;;;;;5050610;28;20260;-76
2023/07/09 08:45:32;;;;;;;5.50;4.50;;;;;;;;;;5045851;28;20209;-76
2023/07/09 08:48:05;;;;;;;7.23;4.63;;;;;;;;;;5033415;28;20209;-75
2023/07/09 08:50:35;;;;;;;5.23;4.50;;;;;;;;;;5036775;28;20217;-73
2023/07/09 08:53:02;;;;;;;7.23;4.67;;;;;;;;;;5031479;28;20194;-73
2023/07/09 08:55:30;;;;;;;7.77;4.50;;;;;;;;;;5031788;28;20654;-73
2023/07/09 08:58:04;;;;;;;7.00;4.93;;;;;;;;;;5033235;28;20692;-73
2023/07/09 09:00:34;;;;;;;5.67;4.70;;;;;;;;;;5032710;28;20178;-73
2023/07/09 09:03:03;;;;;;;8.23;5.23;;;;;;;;;;5033112;28;20177;-73
2023/07/09 09:05:33;;;;;;;6.47;4.97;;;;;;;;;;5031222;28;20175;-73
2023/07/09 09:08:03;;;;;;;5.53;4.30;;;;;;;;;;5032022;28;20213;-73
2023/07/09 09:10:47;;;;;;;7.40;5.27;;;;;;;;;;5031773;28;20183;-74
2023/07/09 09:13:15;;;;;;;6.87;5.00;;;;;;;;;;5032690;28;20215;-74
2023/07/09 09:15:44;;;;;;;8.10;5.67;;;;;;;;;;5029641;28;20183;-75
2023/07/09 09:18:17;;;;;;;7.23;5.20;;;;;;;;;;5032596;28;20207;-73
2023/07/09 09:20:44;;;;;;;9.17;5.10;;;;;;;;;;5015684;28;20190;-75
2023/07/09 09:23:14;;;;;;;6.00;4.93;;;;;;;;;;5031714;28;20207;-73
2023/07/09 09:25:48;;;;;;;8.40;4.67;;;;;;;;;;5032824;28;20179;-73
2023/07/09 09:28:14;;;;;;;7.00;5.00;;;;;;;;;;5031503;28;20181;-74
2023/07/09 09:30:40;;;;;;;8.80;5.00;;;;;;;;;;5032720;28;20194;-74
2023/07/09 09:33:11;;;;;;;8.30;5.20;;;;;;;;;;5032918;28;20198;-74
2023/07/09 09:35:39;;;;;;;8.10;4.83;;;;;;;;;;5031834;28;20190;-73
2023/07/09 09:38:12;;;;;;;5.73;4.43;;;;;;;;;;5030859;28;20212;-73
2023/07/09 09:40:39;;;;;;;5.77;4.57;;;;;;;;;;5028351;28;20192;-73
2023/07/09 09:43:13;;;;;;;7.33;4.13;;;;;;;;;;5031486;28;20256;-73
2023/07/09 09:45:40;;;;;;;4.60;4.20;;;;;;;;;;5045153;28;20191;-73
2023/07/09 09:48:13;;;;;;;5.77;4.40;;;;;;;;;;5031389;28;20198;-73
2023/07/09 09:50:40;;;;;;;6.80;4.60;;;;;;;;;;5032997;28;20659;-73
2023/07/09 09:53:08;;;;;;;6.67;4.53;;;;;;;;;;5031532;28;20206;-74
2023/07/09 09:55:34;;;;;;;8.17;4.60;;;;;;;;;;5028483;28;20175;-73
2023/07/09 09:58:02;;;;;;;8.70;5.00;;;;;;;;;;5030380;28;20214;-75
2023/07/09 10:00:29;;;;;;;6.83;4.50;;;;;;;;;;5032084;28;20742;-74
2023/07/09 10:02:59;;;;;;;6.30;4.63;;;;;;;;;;5032229;28;20580;-73
2023/07/09 10:05:33;;;;;;;5.60;4.50;;;;;;;;;;5032114;28;20928;-73
2023/07/09 10:08:00;;;;;;;6.17;4.63;;;;;;;;;;5032149;28;20244;-73
2023/07/09 10:10:28;;;;;;;4.97;4.43;;;;;;;;;;5032776;28;20187;-73
2023/07/09 10:13:22;;;;;;;4.83;4.33;;;;;;;;;;5032979;28;20181;-73
2023/07/09 10:15:54;;;;;;;6.23;4.23;;;;;;;;;;5023971;28;20194;-74
2023/07/09 10:18:39;;;;;;;8.10;4.60;;;;;;;;;;5024388;28;20268;-73
2023/07/09 10:21:25;;;;;;;5.53;3.90;;;;;;;;;;5013731;28;20186;-74
2023/07/09 10:24:12;;;;;;;4.43;3.97;;;;;;;;;;5013441;28;20350;-73
2023/07/09 10:27:01;;;;;;;6.37;4.50;;;;;;;;;;5013062;28;20256;-74
2023/07/09 10:29:47;;;;;;;4.90;4.30;;;;;;;;;;5005710;28;20198;-73
2023/07/09 10:32:16;;;;;;;5.03;4.03;;;;;;;;;;5013295;28;20191;-74
2023/07/09 10:34:56;;;;;;;4.27;3.87;;;;;;;;;;5013267;28;20259;-74
2023/07/09 10:37:36;;;;;;;5.23;4.07;;;;;;;;;;5012894;28;20309;-73
2023/07/09 10:40:05;;;;;;;5.93;4.00;;;;;;;;;;5012494;28;20964;-74
2023/07/09 10:42:36;;;;;;;6.30;4.10;;;;;;;;;;5011905;28;20167;-73
2023/07/09 10:45:09;;;;;;;4.90;3.80;;;;;;;;;;5029078;28;20665;-74
2023/07/09 10:47:38;;;;;;;6.53;3.63;;;;;;;;;;5032248;28;20686;-73
2023/07/09 10:50:06;;;;;;;4.07;3.60;;;;;;;;;;5031406;28;20174;-74
2023/07/09 10:52:35;;;;;;;4.33;3.57;;;;;;;;;;5032199;28;20666;-74
2023/07/09 10:55:16;;;;;;;6.93;3.50;;;;;;;;;;5032590;28;20200;-74
2023/07/09 10:57:57;;;;;;;4.57;3.50;;;;;;;;;;5032625;28;20219;-74
2023/07/09 11:00:31;;;;;;;4.63;3.57;;;;;;;;;;5032350;28;20184;-73
2023/07/09 11:03:04;;;;;;;4.03;3.63;;;;;;;;;;5031335;28;20650;-73
2023/07/09 11:05:30;;;;;;;5.53;3.73;;;;;;;;;;5031889;28;20184;-74
2023/07/09 11:08:01;;;;;;;3.87;3.50;;;;;;;;;;5030858;28;20199;-73
2023/07/09 11:10:27;;;;;;;5.07;3.70;;;;;;;;;;5031984;28;20216;-74
2023/07/09 11:13:08;;;;;;;4.60;3.70;;;;;;;;;;5032099;28;20177;-74
2023/07/09 11:15:36;;;;;;;6.20;3.63;;;;;;;;;;5032415;28;20213;-73
2023/07/09 11:18:05;;;;;;;5.10;3.57;;;;;;;;;;5031669;28;20523;-74
2023/07/09 11:20:36;;;;;;;5.00;3.90;;;;;;;;;;5031905;28;20177;-74
2023/07/09 11:23:06;;;;;;;6.23;3.83;;;;;;;;;;5030744;28;20185;-74
2023/07/09 11:25:46;;;;;;;4.27;3.73;;;;;;;;;;5030531;28;20273;-73
2023/07/09 11:28:13;;;;;;;4.30;3.90;;;;;;;;;;5032643;28;20193;-73
2023/07/09 11:30:52;;;;;;;6.83;4.10;;;;;;;;;;5031732;28;20216;-74
2023/07/09 11:33:20;;;;;;;5.23;4.00;;;;;;;;;;5031725;28;20684;-73
2023/07/09 11:35:46;;;;;;;5.17;3.97;;;;;;;;;;5031231;28;20279;-74
2023/07/09 11:38:20;;;;;;;4.00;3.60;;;;;;;;;;5031939;28;20209;-74
2023/07/09 11:40:46;;;;;;;4.57;3.43;;;;;;;;;;5031248;28;20170;-74
2023/07/09 11:43:26;;;;;;;4.50;3.43;;;;;;;;;;5030262;28;20293;-73
2023/07/09 11:45:52;;;;;;;5.00;3.77;;;;;;;;;;5030970;28;20580;-74
2023/07/09 11:48:29;;;;;;;4.63;3.90;;;;;;;;;;5030126;28;20208;-74
2023/07/09 11:50:58;;;;;;;5.37;3.80;;;;;;;;;;5031497;28;20179;-74
2023/07/09 11:53:36;;;;;;;6.87;3.80;;;;;;;;;;5031258;28;20581;-75
2023/07/09 11:56:03;;;;;;;4.67;3.60;;;;;;;;;;5029932;28;20660;-74
2023/07/09 11:58:29;;;;;;;5.57;3.60;;;;;;;;;;5029998;28;20248;-74
2023/07/09 12:00:56;;;;;;;5.03;3.57;;;;;;;;;;5031476;28;20175;-74
2023/07/09 12:03:35;;;;;;;5.43;3.30;;;;;;;;;;5031090;28;20193;-74
2023/07/09 12:06:17;;;;;;;6.17;3.40;;;;;;;;;;5030670;28;20241;-74
2023/07/09 12:08:44;;;;;;;5.83;3.53;;;;;;;;;;5030246;28;20325;-74
2023/07/09 12:11:26;;;;;;;3.97;3.20;;;;;;;;;;5031005;28;20209;-75
2023/07/09 12:13:52;;;;;;;3.53;3.23;;;;;;;;;;5031164;28;20207;-74
2023/07/09 12:16:22;;;;;;;5.27;3.33;;;;;;;;;;5030468;28;20695;-74
2023/07/09 12:18:49;;;;;;;4.13;3.07;;;;;;;;;;5030292;28;20222;-75
2023/07/09 12:21:15;;;;;;;3.70;3.40;;;;;;;;;;5031146;28;20180;-75
2023/07/09 12:23:41;;;;;;;3.67;3.17;;;;;;;;;;5030810;28;20280;-75
2023/07/09 12:26:12;;;;;;;3.60;3.30;;;;;;;;;;5031715;28;20215;-74
2023/07/09 12:28:38;;;;;;;3.50;2.80;;;;;;;;;;5023254;28;20675;-75
2023/07/09 12:31:04;;;;;;;4.85;3.30;;;;;;;;;;5028233;28;20189;-74
2023/07/09 12:33:30;;;;;;;3.38;3.08;;;;;;;;;;5029929;28;20209;-74
2023/07/09 12:35:59;;;;;;;3.20;2.90;;;;;;;;;;5030315;28;20266;-74
2023/07/09 12:38:26;;;;;;;4.03;2.95;;;;;;;;;;5029491;28;20195;-74
2023/07/09 12:40:53;;;;;;;3.22;2.90;;;;;;;;;;5029546;28;20185;-74
2023/07/09 12:43:22;;;;;;;3.20;2.88;;;;;;;;;;5029394;28;20206;-73
2023/07/09 12:45:48;;;;;;;5.05;2.95;;;;;;;;;;5027325;28;20220;-74
2023/07/09 12:48:14;;;;;;;3.40;3.10;;;;;;;;;;5027690;28;20236;-74
2023/07/09 12:50:41;;;;;;;3.38;3.00;;;;;;;;;;5028101;28;20190;-74
2023/07/09 12:53:14;;;;;;;3.40;2.90;;;;;;;;;;5027516;28;20198;-74
2023/07/09 12:55:42;;;;;;;4.35;3.20;;;;;;;;;;5029337;28;20262;-74
2023/07/09 12:58:16;;;;;;;3.88;3.10;;;;;;;;;;5027680;28;20306;-75
2023/07/09 13:00:42;;;;;;;3.40;3.10;;;;;;;;;;5028736;28;20714;-74
2023/07/09 13:03:13;;;;;;;4.40;3.60;;;;;;;;;;5028993;28;20206;-75
2023/07/09 13:05:39;;;;;;;4.18;3.40;;;;;;;;;;5028180;28;20189;-74
2023/07/09 13:08:15;;;;;;;6.60;3.22;;;;;;;;;;5029170;28;20235;-74
2023/07/09 13:10:43;;;;;;;4.95;3.47;;;;;;;;;;5026779;28;20252;-74
2023/07/09 13:13:13;;;;;;;3.90;3.50;;;;;;;;;;5028441;28;20207;-74
2023/07/09 13:15:42;;;;;;;4.32;3.40;;;;;;;;;;5028085;28;20864;-74
2023/07/09 13:18:10;;;;;;;3.85;3.20;;;;;;;;;;5028396;28;20355;-74
2023/07/09 13:20:42;;;;;;;4.68;3.65;;;;;;;;;;5025633;28;20242;-73
2023/07/09 13:23:12;;;;;;;5.03;3.58;;;;;;;;;;5028216;28;20668;-74
2023/07/09 13:25:41;;;;;;;4.82;3.50;;;;;;;;;;5028304;28;20197;-75
2023/07/09 13:28:19;;;;;;;5.03;3.58;;;;;;;;;;5028204;28;20202;-75
2023/07/09 13:30:45;;;;;;;3.63;3.00;;;;;;;;;;5030903;28;20207;-72
2023/07/09 13:33:12;;;;;;;5.38;3.67;;;;;;;;;;5031167;28;20244;-74
2023/07/09 13:35:38;;;;;;;4.65;3.38;;;;;;;;;;5029521;28;20182;-75
2023/07/09 13:38:11;;;;;;;4.90;3.65;;;;;;;;;;5028468;28;20203;-75
2023/07/09 13:40:37;;;;;;;4.57;3.35;;;;;;;;;;5029430;28;20694;-76
2023/07/09 13:43:05;;;;;;;4.45;3.13;;;;;;;;;;5030285;28;20955;-76
2023/07/09 13:45:33;;;;;;;5.85;3.22;;;;;;;;;;5031773;28;20609;-74
2023/07/09 13:47:59;;;;;;;4.28;3.10;;;;;;;;;;5030315;28;20686;-75
2023/07/09 13:50:25;;;;;;;5.05;3.28;;;;;;;;;;5032719;28;20232;-77
2023/07/09 13:52:51;;;;;;;4.72;3.47;;;;;;;;;;5032439;28;20185;-75
2023/07/09 13:55:19;;;;;;;4.25;3.15;;;;;;;;;;5030872;28;20195;-75
2023/07/09 13:57:46;;;;;;;4.32;3.00;;;;;;;;;;5031871;28;20235;-75
2023/07/09 14:00:12;;;;;;;3.80;3.10;;;;;;;;;;5032476;28;20185;-75
2023/07/09 14:02:39;;;;;;;4.20;3.03;;;;;;;;;;5032989;28;20243;-75
2023/07/09 14:05:06;;;;;;;3.70;2.83;;;;;;;;;;5030551;28;20636;-75
2023/07/09 14:07:33;;;;;;;5.05;3.28;;;;;;;;;;5030862;28;20251;-74
2023/07/09 14:10:01;;;;;;;3.13;2.83;;;;;;;;;;5032569;28;20707;-77
2023/07/09 14:12:28;;;;;;;4.28;3.10;;;;;;;;;;5029170;28;20260;-74
2023/07/09 14:14:57;;;;;;;3.42;2.90;;;;;;;;;;5031587;28;20288;-76
2023/07/09 14:17:25;;;;;;;4.43;2.95;;;;;;;;;;5032305;28;20734;-75
2023/07/09 14:19:51;;;;;;;3.78;2.70;;;;;;;;;;5032338;28;20284;-75
2023/07/09 14:22:28;;;;;;;4.57;3.17;;;;;;;;;;5029343;28;20187;-75
2023/07/09 14:24:54;;;;;;;4.05;3.08;;;;;;;;;;5028675;28;20205;-75
2023/07/09 14:27:21;;;;;;;4.80;3.30;;;;;;;;;;5030020;28;20716;-75
2023/07/09 14:29:47;;;;;;;6.55;3.20;;;;;;;;;;5005122;28;20328;-75
2023/07/09 14:32:33;;;;;;;4.85;3.17;;;;;;;;;;5031657;28;20245;-75
2023/07/09 14:35:00;;;;;;;2.92;2.70;;;;;;;;;;5030314;28;20201;-76
2023/07/09 14:37:26;;;;;;;4.13;3.13;;;;;;;;;;5030740;28;20581;-75
2023/07/09 14:39:52;;;;;;;5.68;3.10;;;;;;;;;;5031083;28;20653;-75
2023/07/09 14:42:19;;;;;;;4.45;3.30;;;;;;;;;;5030963;28;20184;-75
2023/07/09 14:44:45;;;;;;;3.25;2.95;;;;;;;;;;5030461;28;20316;-75
2023/07/09 14:47:15;;;;;;;5.90;3.75;;;;;;;;;;5031107;28;20338;-75
2023/07/09 14:49:41;;;;;;;5.30;3.50;;;;;;;;;;5029689;28;20191;-76